Wetterdaten: Dezember 2013
Datum Temp Feuchte Luftdruck Regen Wind Richtung Sonnenschein UV Solar Windben
01.12.2013 4,8 C 99 % 1028,6 hPa 2,6 l/m 1,0 km/h NW 0,00 h 0,5 UV-I 25 W/m 8,0 km/h
02.12.2013 2,7 C 95 % 1033,3 hPa 0,0 l/m 0,0 km/h S-SO 1,17 h 0,6 UV-I 85 W/m 0,0 km/h
03.12.2013 -0,1 C 91 % 1027,9 hPa 0,2 l/m 0,0 km/h S 4,08 h 0,6 UV-I 118 W/m 0,0 km/h
04.12.2013 2,9 C 97 % 1024,8 hPa 4,0 l/m 5,0 km/h NW 0,00 h 0,0 UV-I 25 W/m 15,3 km/h
05.12.2013 2,3 C 91 % 1011,7 hPa 7,0 l/m 17,9 km/h S-SW 0,00 h 0,0 UV-I 46 W/m 39,0 km/h
06.12.2013 0,5 C 92 % 1016,8 hPa 0,0 l/m 9,9 km/h W 0,00 h 0,5 UV-I 40 W/m 31,0 km/h
07.12.2013 2,7 C 96 % 1023,0 hPa 3,2 l/m 1,9 km/h W 0,17 h 0,5 UV-I 43 W/m 11,7 km/h
08.12.2013 6,0 C 96 % 1022,3 hPa 2,6 l/m 8,3 km/h S-SW 0,00 h 0,0 UV-I 24 W/m 30,2 km/h
09.12.2013 6,3 C 98 % 1028,2 hPa 4,0 l/m 6,1 km/h W 0,00 h 0,0 UV-I 10 W/m 21,4 km/h
10.12.2013 4,7 C 99 % 1034,5 hPa 0,0 l/m 0,0 km/h S-SO 0,00 h 0,5 UV-I 49 W/m 1,2 km/h
11.12.2013 3,4 C 99 % 1033,4 hPa 0,2 l/m 3,0 km/h S-SO 2,00 h 0,6 UV-I 94 W/m 5,6 km/h
12.12.2013 1,5 C 97 % 1028,0 hPa 0,2 l/m 9,4 km/h S-SO 3,83 h 0,6 UV-I 106 W/m 12,5 km/h
13.12.2013 -0,8 C 96 % 1024,4 hPa 0,2 l/m 2,7 km/h S 4,33 h 0,6 UV-I 116 W/m 4,0 km/h
14.12.2013 1,7 C 98 % 1027,0 hPa 1,6 l/m 1,5 km/h S 0,00 h 0,0 UV-I 14 W/m 2,8 km/h
15.12.2013 4,3 C 95 % 1027,0 hPa 1,4 l/m 9,6 km/h S 0,08 h 0,0 UV-I 26 W/m 15,7 km/h
16.12.2013 3,3 C 85 % 1025,0 hPa 0,0 l/m 11,3 km/h S 4,83 h 0,6 UV-I 117 W/m 15,3 km/h
17.12.2013 4,9 C 87 % 1023,7 hPa 0,0 l/m 3,2 km/h S 1,83 h 0,5 UV-I 91 W/m 4,4 km/h
18.12.2013 5,5 C 89 % 1016,2 hPa 0,0 l/m 16,3 km/h S 0,17 h 0,0 UV-I 47 W/m 26,5 km/h
19.12.2013 5,2 C 94 % 1008,4 hPa 3,2 l/m 8,1 km/h S-SO 0,08 h 0,0 UV-I 28 W/m 12,9 km/h
20.12.2013 3,3 C 92 % 1024,3 hPa 1,0 l/m 5,0 km/h S 1,08 h 0,0 UV-I 47 W/m 12,9 km/h
21.12.2013 2,4 C 82 % 1022,4 hPa 0,0 l/m 8,1 km/h S 0,08 h 0,5 UV-I 60 W/m 15,7 km/h
22.12.2013 6,8 C 91 % 1013,9 hPa 8,0 l/m 12,4 km/h S 0,00 h 0,0 UV-I 24 W/m 27,3 km/h
23.12.2013 7,0 C 87 % 1009,6 hPa 0,0 l/m 14,7 km/h S 3,42 h 0,5 UV-I 106 W/m 26,2 km/h
24.12.2013 10,2 C 78 % 992,8 hPa 0,0 l/m 31,6 km/h S 0,83 h 0,5 UV-I 65 W/m 47,5 km/h
25.12.2013 5,8 C 92 % 992,1 hPa 1,2 l/m 4,0 km/h S 0,00 h 0,0 UV-I 50 W/m 8,4 km/h
26.12.2013 4,5 C 98 % 998,4 hPa 2,2 l/m 2,8 km/h W 0,00 h 0,0 UV-I 27 W/m 10,5 km/h
27.12.2013 5,3 C 85 % 999,0 hPa 0,0 l/m 26,1 km/h S 1,83 h 0,6 UV-I 59 W/m 38,6 km/h
28.12.2013 5,8 C 95 % 1001,1 hPa 5,8 l/m 5,7 km/h S 0,00 h 0,0 UV-I 30 W/m 9,6 km/h
29.12.2013 3,9 C 93 % 1017,6 hPa 6,0 l/m 8,0 km/h S-SW 0,00 h 0,0 UV-I 26 W/m 20,5 km/h
30.12.2013 2,1 C 89 % 1022,6 hPa 0,0 l/m 19,1 km/h S-SO 4,08 h 0,6 UV-I 112 W/m 28,6 km/h
31.12.2013 2,3 C 84 % 1014,8 hPa 0,0 l/m 15,0 km/h S-SO 3,50 h 0,6 UV-I 109 W/m 21,3 km/h
Min-Datum 03.12.13 05.12.13 25.12.13 19 Tage 01.12.13 - - - - 01.12.13
Min-Zeit 22:40 14:45 05:20 - 00:00 - - - - 22:15
Minimum -2,5 C 70 % 985,9 hPa - 0,0 km/h - - - - 0,0 km/h
Max-Datum 24.12.13 02.12.13 02.12.13 22.12.13 27.12.13 - 16.12.13 02.12.13 11.12.13 27.12.13
Max-Zeit 14:35 01:50 10:35 20:00 10:50 - 14:55 12:10 13:00 11:00
Maximum 11,5 C 100 % 1035,5 hPa 8,0 l/m 38,2 km/h
S
- 4,75 h 0,7 UV-I 304 W/m 66,0 km/h
S-SO
Durchschnitt 3,9 C 92 % 1018,5 hPa #54,6 l/m 8,6 km/h S #37:25 h 0,5 UV-I 59 W/m 16,9 km/h

Durchschnitt Minimum Temp.1,2 C
Durchschnitt Maximum Temp.6,2 C